Time;durP1;ratioP1;P1;durP2;ratioP2;P2;SDS_P1;SDS_P2;PMS_P1;PMS_P2;Temp;Humidity;BMP_temperature;BMP_pressure;BME280_temperature;BME280_humidity;BME280_pressure;Samples;Min_cycle;Max_cycle;Signal;HPM_P1;HPM_P2
2022/01/02 00:00:17;;;;;;;18.63;11.32;;;;;;;11.23;77.28;101468.44;5092858;28;20043;-67
2022/01/02 00:02:49;;;;;;;21.40;11.80;;;;;;;11.29;77.67;101476.34;5093974;28;20078;-67
2022/01/02 00:05:20;;;;;;;16.15;10.18;;;;;;;11.22;77.70;101475.91;5093138;28;20055;-67
2022/01/02 00:08:03;;;;;;;16.65;10.70;;;;;;;11.05;78.45;101470.06;5094897;28;20056;-67
2022/01/02 00:10:32;;;;;;;15.93;10.63;;;;;;;11.12;78.14;101462.25;5093254;28;20059;-68
2022/01/02 00:13:01;;;;;;;17.05;10.40;;;;;;;11.04;78.91;101462.09;5093381;28;20052;-68
2022/01/02 00:15:29;;;;;;;15.95;10.30;;;;;;;10.85;79.30;101467.63;5097620;28;20044;-67
2022/01/02 00:18:05;;;;;;;17.10;10.15;;;;;;;11.08;79.20;101469.50;5098506;28;20155;-68
2022/01/02 00:20:32;;;;;;;14.85;9.85;;;;;;;11.27;78.63;101466.72;5098223;28;20544;-67
2022/01/02 00:23:05;;;;;;;15.43;9.57;;;;;;;11.44;77.64;101474.47;5098607;28;20511;-68
2022/01/02 00:25:40;;;;;;;17.30;10.63;;;;;;;11.56;76.72;101483.09;5097488;28;20048;-70
2022/01/02 00:28:07;;;;;;;16.80;10.10;;;;;;;11.59;76.77;101483.31;5096988;28;20051;-68
2022/01/02 00:30:41;;;;;;;17.15;10.85;;;;;;;11.69;76.08;101471.28;5097150;28;20518;-67
2022/01/02 00:33:09;;;;;;;17.07;11.47;;;;;;;11.75;76.00;101465.38;5096964;28;20056;-67
2022/01/02 00:35:37;;;;;;;16.98;9.95;;;;;;;11.65;75.95;101461.97;5096334;28;20300;-67
2022/01/02 00:38:06;;;;;;;14.82;8.93;;;;;;;11.68;75.65;101455.88;5098262;28;20055;-67
2022/01/02 00:40:39;;;;;;;15.40;9.63;;;;;;;11.57;76.04;101448.84;5097739;28;20052;-67
2022/01/02 00:43:11;;;;;;;14.80;9.07;;;;;;;11.68;75.54;101444.84;5098127;28;20059;-67
2022/01/02 00:45:45;;;;;;;15.13;9.35;;;;;;;11.63;75.60;101456.72;5096346;28;20044;-67
2022/01/02 00:48:26;;;;;;;19.15;12.68;;;;;;;11.65;75.89;101464.72;5098186;28;20048;-68
2022/01/02 00:51:01;;;;;;;15.60;8.98;;;;;;;11.83;75.38;101458.34;5097659;28;20495;-68
2022/01/02 00:53:33;;;;;;;16.98;9.48;;;;;;;11.64;75.41;101469.47;5096796;28;20059;-68
2022/01/02 00:56:02;;;;;;;14.40;9.80;;;;;;;11.51;76.14;101470.19;5097205;28;20044;-67
2022/01/02 00:59:00;;;;;;;16.27;9.52;;;;;;;11.70;75.28;101450.88;5096275;28;20056;-66
2022/01/02 01:01:33;;;;;;;14.90;9.50;;;;;;;11.75;74.95;101432.25;5079362;28;20067;-67
2022/01/02 01:04:02;;;;;;;14.93;9.38;;;;;;;11.54;75.39;101417.16;5078686;28;20055;-67
2022/01/02 01:06:33;;;;;;;16.63;9.00;;;;;;;11.41;76.22;101422.63;5096942;28;20045;-67
2022/01/02 01:09:05;;;;;;;15.75;9.52;;;;;;;11.38;76.96;101430.38;5095260;28;20067;-67
2022/01/02 01:11:32;;;;;;;15.77;9.68;;;;;;;11.53;76.42;101415.53;5078819;28;20040;-67
2022/01/02 01:14:01;;;;;;;15.23;9.27;;;;;;;11.68;75.93;101407.00;5097307;28;20403;-67
2022/01/02 01:16:28;;;;;;;15.02;9.77;;;;;;;11.60;75.50;101385.59;5095513;28;20083;-67
2022/01/02 01:18:57;;;;;;;16.10;9.15;;;;;;;11.52;75.53;101379.97;5095804;28;20499;-68
2022/01/02 01:21:25;;;;;;;14.82;8.10;;;;;;;11.46;75.71;101392.19;5095814;28;20126;-67
2022/01/02 01:23:52;;;;;;;14.93;9.23;;;;;;;11.39;76.51;101384.31;5095650;28;20068;-68
2022/01/02 01:26:22;;;;;;;15.57;9.48;;;;;;;11.52;76.40;101378.03;5074806;28;20048;-67
2022/01/02 01:28:49;;;;;;;16.25;9.02;;;;;;;11.46;76.15;101394.97;5075429;28;20510;-67
2022/01/02 01:31:17;;;;;;;14.70;9.00;;;;;;;11.36;76.79;101398.72;5076875;28;20044;-67
2022/01/02 01:33:44;;;;;;;13.98;8.35;;;;;;;11.56;76.02;101397.56;5075514;28;20053;-67
2022/01/02 01:36:11;;;;;;;12.93;8.68;;;;;;;11.56;76.15;101405.84;5076281;28;20048;-67
2022/01/02 01:38:39;;;;;;;14.32;7.78;;;;;;;11.60;75.85;101387.53;5075442;28;20060;-68
2022/01/02 01:41:28;;;;;;;14.35;8.73;;;;;;;11.59;76.00;101383.16;5078303;28;20056;-70
2022/01/02 01:45:02;;;;;;;12.93;7.93;;;;;;;11.59;76.02;101385.91;5078930;28;20428;-67
2022/01/02 01:46:44;;;;;;;13.88;8.32;;;;;;;11.66;75.70;101392.72;5094540;28;20523;-67
2022/01/02 01:49:20;;;;;;;15.55;8.40;;;;;;;11.69;75.47;101386.56;5095351;28;20048;-67
2022/01/02 01:51:48;;;;;;;15.35;8.55;;;;;;;11.52;75.68;101375.28;5095703;28;20063;-68
2022/01/02 01:54:16;;;;;;;12.90;8.43;;;;;;;11.44;76.02;101369.66;5062146;28;20052;-67
2022/01/02 01:56:45;;;;;;;11.85;8.13;;;;;;;11.65;75.65;101359.88;5095118;28;20047;-68
2022/01/02 01:59:14;;;;;;;12.18;8.18;;;;;;;11.59;75.54;101361.06;5078880;28;20064;-67
2022/01/02 02:01:43;;;;;;;13.13;8.43;;;;;;;11.59;75.63;101359.16;5078865;28;20055;-67
2022/01/02 02:04:10;;;;;;;13.82;7.90;;;;;;;11.43;76.32;101360.53;5078162;28;20048;-67
2022/01/02 02:06:37;;;;;;;17.85;9.35;;;;;;;11.44;76.50;101364.13;5095824;28;20075;-67
2022/01/02 02:09:07;;;;;;;13.90;8.50;;;;;;;11.52;76.38;101357.91;5094749;28;20059;-67
2022/01/02 02:11:38;;;;;;;14.38;8.10;;;;;;;11.41;76.64;101356.44;5094872;28;20048;-67
2022/01/02 02:14:07;;;;;;;12.68;7.75;;;;;;;11.28;76.90;101345.06;5094582;28;20059;-68
2022/01/02 02:16:36;;;;;;;;;;;;;;;11.31;76.99;101343.66;5095106;28;20043;-68
2022/01/02 02:19:04;;;;;;;13.45;7.70;;;;;;;11.27;77.46;101337.09;5077957;28;19920;-67
2022/01/02 02:21:34;;;;;;;13.13;7.82;;;;;;;11.26;77.79;101329.97;5094748;28;20397;-68
2022/01/02 02:24:07;;;;;;;15.43;7.65;;;;;;;11.37;77.23;101325.88;5077832;28;20047;-67
2022/01/02 02:26:37;;;;;;;14.75;7.93;;;;;;;11.48;76.51;101318.25;5093760;28;20036;-67
2022/01/02 02:29:05;;;;;;;11.70;7.30;;;;;;;11.57;76.64;101314.47;5077848;28;20047;-66
2022/01/02 02:31:33;;;;;;;16.38;7.78;;;;;;;11.44;76.30;101311.72;5077858;28;20047;-67
2022/01/02 02:34:01;;;;;;;15.35;7.55;;;;;;;11.68;76.13;101304.09;5077697;28;20056;-67
2022/01/02 02:36:28;;;;;;;12.60;7.65;;;;;;;11.83;75.52;101307.38;5094183;28;20058;-67
2022/01/02 02:38:55;;;;;;;13.63;7.03;;;;;;;12.01;74.57;101300.09;5094742;28;20052;-67
2022/01/02 02:41:23;;;;;;;12.10;7.15;;;;;;;11.74;75.50;101291.81;5094227;28;20090;-67
2022/01/02 02:43:59;;;;;;;12.50;7.30;;;;;;;11.52;76.28;101287.00;5094376;28;20055;-67
2022/01/02 02:49:18;;;;;;;11.60;7.05;;;;;;;11.48;76.32;101274.94;5094095;28;20463;-67
2022/01/02 02:52:04;;;;;;;10.80;6.82;;;;;;;11.59;76.09;101273.63;5095426;28;20056;-68
2022/01/02 02:54:35;;;;;;;12.90;7.15;;;;;;;11.54;76.16;101262.66;5090684;28;20071;-68
2022/01/02 02:57:11;;;;;;;13.23;7.93;;;;;;;11.68;75.69;101259.94;5056393;28;20040;-68
2022/01/02 02:59:39;;;;;;;12.80;7.60;;;;;;;11.60;75.65;101263.38;5090266;28;20083;-67
2022/01/02 03:02:07;;;;;;;14.90;6.97;;;;;;;11.60;75.60;101269.72;5076376;28;20071;-68
2022/01/02 03:04:42;;;;;;;12.07;6.82;;;;;;;11.77;75.67;101271.91;5094051;28;20055;-68
2022/01/02 03:07:09;;;;;;;12.57;7.43;;;;;;;11.63;75.16;101265.53;5093251;28;20055;-68
2022/01/02 03:12:11;;;;;;;11.30;6.95;;;;;;;11.57;75.73;101266.75;5094168;28;20059;-68
2022/01/02 03:14:41;;;;;;;16.33;7.18;;;;;;;11.67;75.56;101242.56;5095329;28;20536;-68
2022/01/02 03:17:09;;;;;;;13.25;6.85;;;;;;;11.72;75.25;101238.88;5093524;28;20051;-67
2022/01/02 03:19:37;;;;;;;12.80;7.28;;;;;;;11.59;75.15;101234.97;5093562;28;20051;-68
2022/01/02 03:22:07;;;;;;;12.85;7.07;;;;;;;11.34;76.05;101227.22;5093456;28;20039;-67
2022/01/02 03:24:35;;;;;;;12.10;7.18;;;;;;;11.39;76.38;101243.66;5094095;28;20070;-67
2022/01/02 03:27:03;;;;;;;11.45;6.50;;;;;;;11.48;75.96;101272.16;5093263;28;20052;-68
2022/01/02 03:29:30;;;;;;;13.13;6.45;;;;;;;11.62;75.72;101266.66;5093404;28;20063;-68
2022/01/02 03:31:59;;;;;;;11.55;6.60;;;;;;;11.56;75.88;101265.94;5095157;28;20059;-68
2022/01/02 03:34:26;;;;;;;11.52;6.82;;;;;;;11.85;75.13;101269.22;5060082;28;20063;-66
2022/01/02 03:36:54;;;;;;;10.48;6.45;;;;;;;11.82;74.42;101260.75;5093295;28;20048;-67
2022/01/02 03:39:21;;;;;;;11.60;7.07;;;;;;;11.76;74.66;101261.97;5093387;28;20048;-67
2022/01/02 03:41:49;;;;;;;11.57;6.38;;;;;;;11.86;74.40;101259.81;5093775;28;20055;-67
2022/01/02 03:44:17;;;;;;;12.30;5.72;;;;;;;11.84;73.97;101251.03;5093801;28;20063;-67
2022/01/02 03:46:44;;;;;;;11.48;6.43;;;;;;;11.96;73.68;101253.28;5076653;28;20526;-67
2022/01/02 03:49:13;;;;;;;12.43;5.88;;;;;;;11.92;73.11;101243.97;5094873;28;20055;-67
2022/01/02 03:51:41;;;;;;;10.55;5.88;;;;;;;12.01;72.46;101239.34;5096871;28;20052;-68
2022/01/02 03:54:09;;;;;;;10.82;6.15;;;;;;;12.20;72.70;101232.53;5097629;28;20073;-69
2022/01/02 03:56:36;;;;;;;9.13;5.47;;;;;;;12.04;72.02;101230.44;5080714;28;20052;-67
2022/01/02 03:59:03;;;;;;;9.95;6.30;;;;;;;11.99;72.17;101230.56;5096816;28;20048;-67
2022/01/02 04:01:31;;;;;;;10.98;6.40;;;;;;;12.17;72.02;101232.34;5098682;28;20060;-67
2022/01/02 04:03:59;;;;;;;12.90;6.35;;;;;;;12.21;71.42;101238.88;5097078;28;20055;-67
2022/01/02 04:06:26;;;;;;;13.35;5.88;;;;;;;12.40;71.08;101229.28;5096779;28;20044;-67
2022/01/02 04:08:53;;;;;;;11.20;6.10;;;;;;;12.67;69.73;101233.06;5097204;28;20040;-67
2022/01/02 04:11:20;;;;;;;12.55;6.18;;;;;;;12.62;69.69;101242.31;5098374;28;20044;-66
2022/01/02 04:13:48;;;;;;;11.27;6.60;;;;;;;12.77;68.87;101236.41;5080672;28;20048;-67
2022/01/02 04:16:15;;;;;;;10.73;6.50;;;;;;;12.49;69.59;101243.19;5098364;28;20051;-68
2022/01/02 04:18:42;;;;;;;9.68;6.10;;;;;;;12.65;69.67;101229.78;5096778;28;20052;-67
2022/01/02 04:21:10;;;;;;;13.73;7.22;;;;;;;12.58;69.13;101224.72;5096741;28;20043;-67
2022/01/02 04:23:38;;;;;;;12.05;7.45;;;;;;;12.35;69.83;101207.31;5098194;28;20055;-68
2022/01/02 04:26:05;;;;;;;12.70;7.18;;;;;;;12.53;69.74;101208.28;5096823;28;20052;-68
2022/01/02 04:28:32;;;;;;;11.75;6.55;;;;;;;12.51;69.43;101205.00;5096471;28;20388;-68
2022/01/02 04:31:00;;;;;;;14.90;7.22;;;;;;;12.25;70.30;101209.50;5097015;28;20055;-68
2022/01/02 04:33:30;;;;;;;15.25;6.13;;;;;;;12.12;71.10;101219.47;5096624;28;20071;-68
2022/01/02 04:35:58;;;;;;;11.48;6.30;;;;;;;12.12;71.24;101213.94;5096249;28;20138;-67
2022/01/02 04:38:25;;;;;;;11.90;6.78;;;;;;;12.35;70.46;101212.84;5096890;28;20048;-67
2022/01/02 04:40:52;;;;;;;10.95;6.30;;;;;;;12.26;70.70;101208.38;5079204;28;20055;-68
2022/01/02 04:43:20;;;;;;;10.75;5.55;;;;;;;12.19;70.42;101213.50;5096636;28;20052;-66
2022/01/02 04:45:47;;;;;;;10.18;6.60;;;;;;;12.27;70.58;101197.00;5096387;28;20048;-67
2022/01/02 04:48:15;;;;;;;11.95;5.47;;;;;;;12.27;70.41;101193.44;5079640;28;20518;-67
2022/01/02 04:50:43;;;;;;;11.15;5.72;;;;;;;12.19;70.61;101185.88;5075303;28;20044;-67
2022/01/02 04:53:10;;;;;;;10.85;5.35;;;;;;;12.27;70.58;101185.97;5077655;28;20059;-67
2022/01/02 04:55:37;;;;;;;12.07;5.72;;;;;;;12.25;70.51;101179.13;5075756;28;20060;-68
2022/01/02 04:58:05;;;;;;;11.55;5.90;;;;;;;12.36;70.22;101184.09;5075691;28;20108;-68
2022/01/02 05:00:32;;;;;;;12.63;5.93;;;;;;;12.36;70.13;101158.44;5076455;28;20498;-67
2022/01/02 05:03:00;;;;;;;11.15;6.05;;;;;;;12.45;70.04;101148.22;5085633;28;20052;-67
2022/01/02 05:05:28;;;;;;;12.40;5.88;;;;;;;12.34;69.88;101120.03;5095771;28;20043;-66
2022/01/02 05:07:55;;;;;;;9.85;5.43;;;;;;;12.15;70.37;101122.19;5095968;28;20044;-68
2022/01/02 05:10:23;;;;;;;9.50;5.00;;;;;;;12.09;70.46;101136.44;5078418;28;20526;-67
2022/01/02 05:12:51;;;;;;;9.00;5.15;;;;;;;12.17;70.37;101150.31;5096384;28;20507;-68
2022/01/02 05:15:18;;;;;;;7.95;5.00;;;;;;;12.11;70.32;101164.56;5097307;28;20403;-68
2022/01/02 05:17:45;;;;;;;9.63;5.22;;;;;;;12.35;69.61;101171.41;5095962;28;20483;-67
2022/01/02 05:20:13;;;;;;;8.50;4.57;;;;;;;12.41;68.91;101161.84;5095435;28;20487;-67
2022/01/02 05:22:41;;;;;;;9.35;4.63;;;;;;;12.54;68.63;101173.13;5095317;28;20056;-67
2022/01/02 05:25:08;;;;;;;8.77;4.78;;;;;;;12.73;68.19;101159.94;5095944;28;20052;-67
2022/01/02 05:27:36;;;;;;;8.55;4.32;;;;;;;12.58;67.80;101147.34;5095670;28;20056;-68
2022/01/02 05:30:04;;;;;;;12.38;5.20;;;;;;;12.66;67.76;101146.56;5096019;28;20052;-67
2022/01/02 05:32:31;;;;;;;9.93;4.22;;;;;;;12.60;67.28;101133.19;5095866;28;20387;-67
2022/01/02 05:35:00;;;;;;;9.90;4.38;;;;;;;12.63;66.67;101132.56;5095230;28;20098;-67
2022/01/02 05:37:27;;;;;;;7.30;4.15;;;;;;;12.94;66.14;101133.34;5095245;28;20498;-68
2022/01/02 05:39:54;;;;;;;8.45;4.45;;;;;;;12.78;66.12;101127.44;5095449;28;20055;-67
2022/01/02 05:42:22;;;;;;;10.98;4.45;;;;;;;12.70;66.46;101130.16;5096894;28;20621;-67
2022/01/02 05:44:49;;;;;;;10.68;3.95;;;;;;;12.92;65.75;101135.66;5078768;28;20491;-67
2022/01/02 05:47:17;;;;;;;9.50;4.28;;;;;;;12.82;65.11;101128.44;5095078;28;20052;-68
2022/01/02 05:49:45;;;;;;;7.97;4.10;;;;;;;13.14;64.84;101130.06;5094718;28;20451;-68
2022/01/02 05:52:12;;;;;;;9.40;5.07;;;;;;;13.34;64.24;101137.75;5095204;28;20059;-68
2022/01/02 05:54:40;;;;;;;9.60;4.85;;;;;;;13.20;64.11;101148.97;5094328;28;20052;-68
2022/01/02 05:57:08;;;;;;;12.05;4.80;;;;;;;13.07;63.99;101149.91;5095051;28;20051;-67
2022/01/02 05:59:37;;;;;;;7.55;4.22;;;;;;;13.20;64.49;101162.78;5078079;28;20142;-68
2022/01/02 06:02:05;;;;;;;10.10;4.40;;;;;;;13.25;63.89;101162.63;5094981;28;20071;-68
2022/01/02 06:04:33;;;;;;;7.80;3.67;;;;;;;13.38;63.69;101153.41;5094680;28;20044;-68
2022/01/02 06:07:01;;;;;;;8.73;3.95;;;;;;;13.45;63.55;101150.16;5094702;28;20499;-67
2022/01/02 06:09:29;;;;;;;12.05;4.15;;;;;;;13.65;62.76;101148.75;5077542;28;20052;-68
2022/01/02 06:12:00;;;;;;;11.43;4.25;;;;;;;13.33;63.31;101134.19;5094869;28;20082;-68
2022/01/02 06:14:28;;;;;;;7.97;3.97;;;;;;;13.23;63.72;101144.75;5094888;28;20047;-69
2022/01/02 06:16:56;;;;;;;8.52;3.90;;;;;;;13.64;62.97;101141.56;5078078;28;20058;-68
2022/01/02 06:19:23;;;;;;;7.97;3.88;;;;;;;13.32;63.00;101137.25;5094282;28;20169;-68
2022/01/02 06:21:51;;;;;;;8.02;3.78;;;;;;;13.06;64.39;101131.66;5094496;28;20055;-68
2022/01/02 06:24:19;;;;;;;9.07;3.83;;;;;;;13.09;64.83;101132.97;5077922;28;20415;-68
2022/01/02 06:26:46;;;;;;;7.20;4.00;;;;;;;13.37;63.52;101157.31;5095698;28;20047;-67
2022/01/02 06:29:14;;;;;;;7.97;3.85;;;;;;;13.22;63.88;101143.94;5094917;28;20398;-68
2022/01/02 06:31:41;;;;;;;8.23;4.47;;;;;;;13.05;64.82;101157.69;5094236;28;20054;-68
2022/01/02 06:34:09;;;;;;;9.23;3.90;;;;;;;13.25;65.29;101170.94;5095338;28;20058;-67
2022/01/02 06:36:37;;;;;;;9.95;3.83;;;;;;;12.99;65.05;101152.59;5093802;28;20127;-68
2022/01/02 06:39:04;;;;;;;8.88;4.15;;;;;;;13.07;65.13;101149.91;5077376;28;20040;-67
2022/01/02 06:41:32;;;;;;;10.18;4.40;;;;;;;13.08;65.25;101159.00;5093547;28;20051;-68
2022/01/02 06:44:00;;;;;;;10.95;4.13;;;;;;;12.94;65.17;101150.78;5095347;28;20052;-67
2022/01/02 06:46:28;;;;;;;6.95;3.67;;;;;;;13.02;65.65;101161.06;5094486;28;20074;-66
2022/01/02 06:48:55;;;;;;;9.25;4.00;;;;;;;12.94;66.01;101166.53;5093685;28;20077;-67
2022/01/02 06:51:43;;;;;;;9.90;4.25;;;;;;;12.80;66.62;101168.59;5095285;28;20047;-69
2022/01/02 06:54:10;;;;;;;13.73;4.50;;;;;;;13.00;66.10;101173.56;5057185;28;20055;-68
2022/01/02 06:56:37;;;;;;;8.68;4.45;;;;;;;12.92;65.94;101158.56;5075228;28;20052;-69
2022/01/02 06:59:05;;;;;;;11.80;4.05;;;;;;;12.97;66.24;101175.03;5090155;28;20064;-68
2022/01/02 07:01:33;;;;;;;10.15;4.57;;;;;;;12.73;67.00;101166.28;5090460;28;20056;-68
2022/01/02 07:04:00;;;;;;;9.35;3.97;;;;;;;12.96;67.08;101162.34;5093374;28;20411;-68
2022/01/02 07:06:28;;;;;;;9.27;4.03;;;;;;;13.16;67.33;101163.75;5071795;28;20044;-68
2022/01/02 07:08:55;;;;;;;8.18;4.10;;;;;;;13.01;66.31;101155.84;5073413;28;20512;-68
2022/01/02 07:11:22;;;;;;;10.65;4.57;;;;;;;12.62;67.48;101167.69;5082926;28;20063;-68
2022/01/02 07:13:50;;;;;;;10.05;4.40;;;;;;;12.77;67.85;101156.22;5095444;28;20510;-68
2022/01/02 07:16:17;;;;;;;12.32;4.60;;;;;;;12.70;67.78;101179.91;5095255;28;20487;-69
2022/01/02 07:18:44;;;;;;;9.32;4.43;;;;;;;12.62;68.26;101176.00;5093838;28;20044;-69
2022/01/02 07:21:12;;;;;;;10.52;4.43;;;;;;;12.71;68.25;101174.06;5094977;28;20060;-67
2022/01/02 07:23:39;;;;;;;10.07;4.50;;;;;;;12.73;68.32;101177.34;5094990;28;20063;-68
2022/01/02 07:26:06;;;;;;;9.43;4.30;;;;;;;12.87;67.96;101172.53;5093897;28;20075;-67
2022/01/02 07:28:34;;;;;;;9.80;5.10;;;;;;;12.82;67.97;101174.63;5095077;28;20043;-68
2022/01/02 07:31:01;;;;;;;13.07;4.65;;;;;;;12.70;68.70;101189.03;5095278;28;20503;-68
2022/01/02 07:33:29;;;;;;;10.30;4.47;;;;;;;12.68;68.93;101191.28;5094793;28;20407;-68
2022/01/02 07:35:56;;;;;;;11.15;4.53;;;;;;;12.60;69.16;101186.53;5094936;28;20043;-68
2022/01/02 07:38:31;;;;;;;8.68;4.68;;;;;;;12.67;69.22;101186.09;5094759;28;20047;-69
2022/01/02 07:40:58;;;;;;;11.68;4.68;;;;;;;12.65;69.23;101194.69;5094701;28;20426;-68
2022/01/02 07:43:26;;;;;;;10.48;4.47;;;;;;;12.63;69.49;101187.84;5076173;28;20056;-68
2022/01/02 07:45:53;;;;;;;7.47;4.43;;;;;;;12.74;68.91;101190.03;5093640;28;20059;-67
2022/01/02 07:48:21;;;;;;;10.93;4.90;;;;;;;12.87;68.69;101191.06;5094530;28;20089;-68
2022/01/02 07:50:48;;;;;;;10.48;4.32;;;;;;;12.87;69.07;101211.25;5094876;28;20067;-69
2022/01/02 07:53:15;;;;;;;13.73;4.90;;;;;;;12.65;69.86;101202.16;5095107;28;20055;-68
2022/01/02 07:55:43;;;;;;;11.88;4.80;;;;;;;12.65;70.17;101210.44;5077863;28;20059;-68
2022/01/02 07:58:13;;;;;;;10.30;4.72;;;;;;;12.92;69.77;101222.16;5092180;28;20663;-68
2022/01/02 08:00:40;;;;;;;10.57;4.47;;;;;;;12.94;69.35;101217.13;5094813;28;20044;-69
2022/01/02 08:03:08;;;;;;;12.82;4.50;;;;;;;12.79;70.37;101228.59;5084228;28;20053;-69
2022/01/02 08:05:38;;;;;;;11.55;4.30;;;;;;;12.67;70.79;101233.91;5093999;28;20048;-68
2022/01/02 08:08:06;;;;;;;11.25;4.60;;;;;;;12.39;72.28;101240.66;5092157;28;20056;-69
2022/01/02 08:10:34;;;;;;;9.25;4.57;;;;;;;12.50;72.18;101255.84;5093932;28;20044;-68
2022/01/02 08:13:04;;;;;;;15.35;5.18;;;;;;;12.57;72.12;101272.81;5093349;28;20056;-68
2022/01/02 08:15:32;;;;;;;13.68;5.00;;;;;;;12.85;71.30;101252.22;5094687;28;20055;-67
2022/01/02 08:18:00;;;;;;;10.77;4.78;;;;;;;12.82;71.46;101261.13;5094342;28;20348;-69
2022/01/02 08:20:27;;;;;;;11.35;4.95;;;;;;;12.81;71.41;101264.22;5094078;28;20051;-67
2022/01/02 08:22:56;;;;;;;9.20;4.53;;;;;;;12.67;71.87;101271.75;5094258;28;20404;-68
2022/01/02 08:25:24;;;;;;;10.23;4.38;;;;;;;12.60;72.11;101282.44;5094376;28;20058;-69
2022/01/02 08:27:51;;;;;;;9.82;4.63;;;;;;;12.76;72.16;101283.69;5093242;28;20055;-69
2022/01/02 08:30:18;;;;;;;12.48;4.68;;;;;;;12.82;71.51;101283.25;5094274;28;20044;-69
2022/01/02 08:32:46;;;;;;;13.30;5.13;;;;;;;12.66;72.42;101287.53;5076649;28;20071;-69
2022/01/02 08:35:13;;;;;;;15.38;6.40;;;;;;;12.90;71.42;101276.97;5084038;28;20047;-69
2022/01/02 08:37:41;;;;;;;9.68;5.00;;;;;;;12.94;71.64;101272.44;5097412;28;20047;-69
2022/01/02 08:40:08;;;;;;;13.15;5.05;;;;;;;12.72;72.22;101275.22;5097937;28;20055;-68
2022/01/02 08:42:36;;;;;;;13.02;5.15;;;;;;;12.68;72.67;101284.44;5098041;28;20055;-69
2022/01/02 08:45:04;;;;;;;11.90;5.15;;;;;;;13.10;71.37;101282.00;5097837;28;20062;-67
2022/01/02 08:47:31;;;;;;;14.07;4.60;;;;;;;13.04;71.42;101288.00;5097758;28;20135;-68
2022/01/02 08:49:58;;;;;;;8.95;4.53;;;;;;;13.28;71.06;101286.53;5095765;28;20051;-68
2022/01/02 08:52:26;;;;;;;15.18;5.60;;;;;;;13.31;70.55;101285.88;5097803;28;20067;-69
2022/01/02 08:54:53;;;;;;;11.07;5.07;;;;;;;13.27;70.49;101295.09;5095997;28;20063;-69
2022/01/02 08:57:20;;;;;;;13.45;4.97;;;;;;;13.36;70.91;101291.28;5096607;28;20051;-69
2022/01/02 08:59:48;;;;;;;11.98;4.93;;;;;;;13.14;71.31;101301.56;5097086;28;20151;-70
2022/01/02 09:02:21;;;;;;;9.90;4.70;;;;;;;13.31;71.43;101298.88;5098244;28;20628;-69
2022/01/02 09:04:48;;;;;;;11.10;4.78;;;;;;;13.30;71.45;101298.06;5097669;28;20044;-70
2022/01/02 09:07:16;;;;;;;11.95;4.90;;;;;;;13.24;71.66;101309.59;5096118;28;20059;-68
2022/01/02 09:09:43;;;;;;;16.70;5.13;;;;;;;12.97;72.63;101313.28;5095553;28;20423;-67
2022/01/02 09:12:12;;;;;;;11.95;4.78;;;;;;;12.91;73.12;101320.09;5097017;28;20048;-69
2022/01/02 09:14:39;;;;;;;13.30;4.93;;;;;;;13.11;72.97;101321.56;5097400;28;20055;-69
2022/01/02 09:17:06;;;;;;;14.52;7.85;;;;;;;13.27;72.49;101317.25;5097421;28;20059;-68
2022/01/02 09:19:33;;;;;;;13.57;6.63;;;;;;;13.42;72.42;101314.09;5096359;28;20040;-68
2022/01/02 09:22:01;;;;;;;15.10;5.18;;;;;;;13.10;73.30;101317.97;5095974;28;20067;-68
2022/01/02 09:24:28;;;;;;;15.23;4.47;;;;;;;12.81;74.74;101331.41;5096835;28;20048;-70
2022/01/02 09:26:56;;;;;;;10.35;5.05;;;;;;;12.86;75.11;101334.03;5097021;28;20056;-68
2022/01/02 09:29:24;;;;;;;11.50;5.10;;;;;;;12.92;75.21;101338.28;5096694;28;20040;-69
2022/01/02 09:31:51;;;;;;;12.40;4.70;;;;;;;12.79;75.42;101333.66;5097015;28;20051;-69
2022/01/02 09:34:19;;;;;;;15.18;5.70;;;;;;;12.98;75.49;101323.22;5075442;28;20417;-68
2022/01/02 09:36:46;;;;;;;16.48;4.55;;;;;;;13.36;73.86;101340.25;5076880;28;20072;-68
2022/01/02 09:39:13;;;;;;;12.75;4.80;;;;;;;13.27;74.02;101340.19;5075385;28;20454;-70
2022/01/02 09:41:41;;;;;;;15.27;5.20;;;;;;;12.91;75.01;101333.91;5076650;28;20045;-68
2022/01/02 09:44:08;;;;;;;12.85;4.82;;;;;;;12.79;75.79;101333.66;5076800;28;20075;-68
2022/01/02 09:46:38;;;;;;;9.63;5.15;;;;;;;12.74;75.97;101338.47;5076605;28;20048;-67
2022/01/02 09:49:09;;;;;;;12.93;4.03;;;;;;;13.24;74.78;101327.00;5080584;28;20048;-68
2022/01/02 09:51:36;;;;;;;15.45;5.07;;;;;;;13.24;74.11;101332.53;5095635;28;20044;-66
2022/01/02 09:54:04;;;;;;;11.05;4.80;;;;;;;13.55;73.40;101336.13;5095270;28;20061;-68
2022/01/02 09:56:31;;;;;;;14.30;5.00;;;;;;;13.42;72.91;101333.47;5096668;28;20052;-69
2022/01/02 09:59:01;;;;;;;14.68;4.50;;;;;;;13.24;73.54;101329.78;5096480;28;20052;-66
2022/01/02 10:01:30;;;;;;;;;;;;;;;13.22;73.95;101322.91;5094227;28;20044;-67
2022/01/02 10:03:59;;;;;;;14.38;4.72;;;;;;;13.44;73.93;101331.19;5087329;28;19920;-66
2022/01/02 10:06:40;;;;;;;15.35;5.40;;;;;;;13.35;74.01;101339.41;5096369;28;20083;-67
2022/01/02 10:09:31;;;;;;;16.73;6.25;;;;;;;13.71;72.90;101335.69;5094886;28;20048;-66
2022/01/02 10:12:30;;;;;;;16.98;5.28;;;;;;;13.52;73.26;101336.78;5115412;28;20051;-66
2022/01/02 10:15:06;;;;;;;13.20;5.22;;;;;;;13.62;72.62;101335.66;5100487;27;20061;-65
2022/01/02 10:17:53;;;;;;;18.55;5.63;;;;;;;13.62;72.79;101343.97;5075727;28;20053;-67
2022/01/02 10:20:21;;;;;;;12.45;4.15;;;;;;;13.65;72.79;101339.75;5072111;28;20068;-62
2022/01/02 10:23:14;;;;;;;11.40;4.82;;;;;;;13.70;73.06;101334.91;5074499;28;20049;-65
2022/01/02 10:25:45;;;;;;;20.88;8.63;;;;;;;13.87;72.17;101325.84;5076244;28;20060;-67
2022/01/02 10:28:48;;;;;;;16.05;4.63;;;;;;;14.06;71.88;101331.94;5089391;28;20056;-67
2022/01/02 10:31:16;;;;;;;15.52;4.53;;;;;;;14.02;71.40;101330.94;5069946;28;20060;-66
2022/01/02 10:33:46;;;;;;;15.48;4.30;;;;;;;13.99;71.51;101326.03;5094764;28;20078;-67
2022/01/02 10:36:14;;;;;;;14.38;4.35;;;;;;;13.97;72.37;101322.75;5087212;28;20056;-66
2022/01/02 10:39:14;;;;;;;12.52;3.50;;;;;;;13.95;71.58;101328.63;5086621;28;20051;-66
2022/01/02 10:41:44;;;;;;;11.67;3.13;;;;;;;14.15;71.34;101332.78;5088905;28;20044;-67
2022/01/02 10:44:22;;;;;;;12.38;4.00;;;;;;;14.37;70.86;101332.66;5094204;28;20047;-67
2022/01/02 10:47:15;;;;;;;14.80;4.35;;;;;;;14.24;70.29;101328.84;5075061;28;20052;-67
2022/01/02 10:49:53;;;;;;;17.08;9.32;;;;;;;14.58;70.27;101325.38;5090086;28;20044;-67
2022/01/02 10:52:25;;;;;;;14.57;7.07;;;;;;;14.34;70.55;101325.84;5073565;28;20064;-67
2022/01/02 10:54:52;;;;;;;13.68;3.97;;;;;;;14.33;70.88;101326.16;5080868;28;20059;-67
2022/01/02 10:57:20;;;;;;;11.82;3.63;;;;;;;14.49;70.31;101319.00;5095396;28;20059;-66
2022/01/02 10:59:47;;;;;;;12.73;3.95;;;;;;;14.88;69.64;101334.66;5090658;28;20147;-68
2022/01/02 11:02:16;;;;;;;11.63;3.65;;;;;;;15.13;69.09;101329.06;5095429;28;20047;-67
2022/01/02 11:04:53;;;;;;;16.30;4.22;;;;;;;14.99;69.47;101324.88;5093044;28;20051;-67
2022/01/02 11:07:23;;;;;;;16.67;5.90;;;;;;;15.16;69.72;101325.66;5095007;28;20066;-67
2022/01/02 11:09:55;;;;;;;29.80;10.50;;;;;;;15.15;69.75;101321.25;5091051;28;20055;-67
2022/01/02 11:12:26;;;;;;;11.88;3.85;;;;;;;15.05;69.30;101324.38;5093903;28;20067;-66
2022/01/02 11:14:54;;;;;;;29.95;10.85;;;;;;;14.74;69.70;101318.19;5092850;28;20040;-67
2022/01/02 11:17:21;;;;;;;21.38;5.68;;;;;;;14.62;70.86;101327.19;5094745;28;20066;-67
2022/01/02 11:19:48;;;;;;;13.63;4.07;;;;;;;14.65;70.59;101328.47;5093280;28;20063;-67
2022/01/02 11:22:33;;;;;;;18.50;5.03;;;;;;;14.45;71.20;101331.88;5093605;28;20055;-69
2022/01/02 11:25:09;;;;;;;14.38;4.28;;;;;;;14.56;72.61;101324.88;5086456;28;20044;-66
2022/01/02 11:28:37;;;;;;;9.40;3.05;;;;;;;14.59;71.12;101321.47;5073187;28;20087;-67
2022/01/02 11:31:07;;;;;;;14.85;3.58;;;;;;;14.58;70.89;101328.13;5073817;28;20095;-67
2022/01/02 11:33:39;;;;;;;12.45;2.90;;;;;;;14.75;71.05;101319.81;5091722;28;20052;-67
2022/01/02 11:36:27;;;;;;;18.27;6.15;;;;;;;14.80;71.60;101322.44;5067198;28;20068;-68